createdAt,value
2019-02-05T00:02:12.513Z,33.47
2019-02-05T00:04:40.662Z,22.33
2019-02-05T00:07:09.242Z,19.00
2019-02-05T00:09:37.385Z,20.27
2019-02-05T00:12:06.418Z,21.30
2019-02-05T00:14:34.610Z,26.53
2019-02-05T00:17:02.726Z,20.30
2019-02-05T00:19:30.846Z,24.80
2019-02-05T00:21:59.034Z,25.70
2019-02-05T00:24:27.212Z,26.70
2019-02-05T00:26:55.366Z,21.43
2019-02-05T00:29:23.622Z,19.70
2019-02-05T00:31:51.809Z,24.97
2019-02-05T00:34:19.947Z,22.37
2019-02-05T00:36:48.429Z,19.40
2019-02-05T00:39:16.633Z,23.13
2019-02-05T00:41:44.780Z,18.43
2019-02-05T00:44:13.441Z,21.73
2019-02-05T00:46:41.611Z,19.33
2019-02-05T00:49:09.753Z,20.93
2019-02-05T00:51:37.918Z,21.70
2019-02-05T00:54:06.168Z,22.13
2019-02-05T00:56:34.419Z,23.73
2019-02-05T00:59:02.570Z,22.60
2019-02-05T01:01:30.718Z,20.53
2019-02-05T01:03:58.889Z,26.10
2019-02-05T01:06:27.177Z,20.00
2019-02-05T01:08:55.377Z,20.90
2019-02-05T01:11:23.800Z,21.57
2019-02-05T01:13:52.089Z,37.90
2019-02-05T01:16:20.507Z,20.37
2019-02-05T01:18:48.657Z,18.93
2019-02-05T01:21:16.884Z,21.67
2019-02-05T01:23:45.067Z,20.13
2019-02-05T01:26:13.198Z,21.40
2019-02-05T01:28:41.489Z,24.40
2019-02-05T01:31:09.630Z,15.13
2019-02-05T01:33:37.809Z,17.17
2019-02-05T01:36:06.108Z,17.30
2019-02-05T01:38:34.254Z,18.87
2019-02-05T01:41:02.404Z,18.57
2019-02-05T01:43:30.595Z,17.93
2019-02-05T01:45:58.774Z,19.57
2019-02-05T01:48:27.198Z,20.27
2019-02-05T01:50:55.352Z,19.13
2019-02-05T01:53:23.567Z,19.87
2019-02-05T01:55:51.749Z,16.83
2019-02-05T01:58:19.907Z,18.83
2019-02-05T02:00:48.058Z,19.17
2019-02-05T02:03:16.203Z,17.30
2019-02-05T02:05:44.382Z,16.67
2019-02-05T02:08:12.660Z,16.23
2019-02-05T02:10:40.789Z,22.40
2019-02-05T02:13:09.014Z,17.63
2019-02-05T02:15:37.230Z,21.67
2019-02-05T02:18:24.772Z,22.90
2019-02-05T02:20:53.190Z,19.03
2019-02-05T02:23:21.330Z,18.07
2019-02-05T02:28:23.034Z,17.93
2019-02-05T02:36:26.982Z,21.93
2019-02-05T02:38:55.133Z,20.53
2019-02-05T02:41:23.312Z,20.40
2019-02-05T02:49:06.683Z,17.63
2019-02-05T02:51:35.507Z,15.07
2019-02-05T02:54:04.190Z,16.70
2019-02-05T02:57:04.321Z,16.07
2019-02-05T02:59:21.797Z,16.83
2019-02-05T03:02:09.947Z,17.60
2019-02-05T03:07:51.038Z,16.53
2019-02-05T03:10:38.739Z,18.63
2019-02-05T03:13:06.879Z,19.47
2019-02-05T03:15:35.140Z,22.03
2019-02-05T03:18:03.502Z,17.30
2019-02-05T03:20:51.603Z,17.87
2019-02-05T03:23:19.848Z,20.33
2019-02-05T03:25:48.088Z,24.13
2019-02-05T03:28:16.458Z,21.67
2019-02-05T03:31:03.914Z,20.63
2019-02-05T03:36:06.117Z,21.23
2019-02-05T03:38:53.734Z,22.47
2019-02-05T03:44:34.983Z,24.83
2019-02-05T03:47:03.105Z,22.37
2019-02-05T03:49:31.585Z,18.70
2019-02-05T03:52:01.268Z,17.97
2019-02-05T03:54:48.801Z,18.43
2019-02-05T03:57:37.192Z,21.13
2019-02-05T04:00:24.696Z,19.97
2019-02-05T04:03:00.363Z,17.07
2019-02-05T04:05:39.178Z,18.33
2019-02-05T04:08:08.976Z,21.43
2019-02-05T04:10:41.534Z,20.47
2019-02-05T04:13:11.185Z,20.87
2019-02-05T04:15:53.511Z,21.27
2019-02-05T04:18:29.395Z,19.60
2019-02-05T04:20:59.270Z,19.23
2019-02-05T04:23:44.125Z,19.70
2019-02-05T04:26:31.834Z,22.27
2019-02-05T04:29:19.314Z,21.47
2019-02-05T04:31:58.355Z,23.23
2019-02-05T04:34:28.328Z,22.60
2019-02-05T04:37:00.933Z,25.13
2019-02-05T04:39:48.538Z,23.07
2019-02-05T04:42:18.292Z,22.80
2019-02-05T04:45:07.748Z,26.83
2019-02-05T04:47:54.038Z,24.63
2019-02-05T04:50:30.020Z,25.73
2019-02-05T04:53:16.335Z,27.30
2019-02-05T04:55:46.120Z,24.97
2019-02-05T04:58:25.011Z,27.83
2019-02-05T05:01:07.026Z,28.07
2019-02-05T05:03:54.545Z,28.83
2019-02-05T05:06:36.732Z,26.40
2019-02-05T05:09:09.331Z,25.83
2019-02-05T05:11:37.472Z,30.20
2019-02-05T05:14:05.882Z,38.53
2019-02-05T05:16:34.178Z,31.13
2019-02-05T05:19:02.479Z,25.50
2019-02-05T05:21:30.755Z,33.03
2019-02-05T05:23:59.194Z,42.37
2019-02-05T05:26:27.647Z,26.87
2019-02-05T05:28:56.045Z,29.47
2019-02-05T05:31:24.293Z,27.23
2019-02-05T05:33:52.580Z,35.57
2019-02-05T05:36:20.874Z,32.80
2019-02-05T05:38:49.081Z,23.43
2019-02-05T05:41:17.642Z,25.53
2019-02-05T05:43:45.995Z,26.13
2019-02-05T05:46:14.151Z,32.90
2019-02-05T05:48:42.345Z,33.57
2019-02-05T05:51:10.582Z,24.83
2019-02-05T05:53:38.773Z,24.20
2019-02-05T05:56:06.976Z,28.30
2019-02-05T05:58:36.874Z,28.27
2019-02-05T06:01:05.196Z,25.47
2019-02-05T06:03:33.425Z,29.57
2019-02-05T06:06:02.022Z,32.60
2019-02-05T06:08:30.270Z,37.03
2019-02-05T06:10:58.482Z,29.13
2019-02-05T06:13:26.840Z,30.83
2019-02-05T06:15:55.155Z,29.93
2019-02-05T06:18:23.347Z,27.07
2019-02-05T06:20:52.086Z,25.67
2019-02-05T06:23:39.664Z,26.53
2019-02-05T06:26:08.120Z,28.93
2019-02-05T06:28:36.625Z,24.60
2019-02-05T06:31:04.777Z,26.53
2019-02-05T06:33:33.247Z,26.00
2019-02-05T06:36:01.525Z,28.37
2019-02-05T06:38:29.760Z,33.93
2019-02-05T06:40:58.270Z,25.63
2019-02-05T06:43:26.480Z,27.27
2019-02-05T06:45:54.999Z,28.57
2019-02-05T06:48:23.198Z,27.43
2019-02-05T06:50:51.455Z,29.47
2019-02-05T06:53:19.617Z,37.20
2019-02-05T06:55:47.846Z,29.63
2019-02-05T06:58:16.102Z,34.50
2019-02-05T07:00:44.245Z,31.67
2019-02-05T07:03:12.649Z,38.67
2019-02-05T07:05:40.940Z,32.40
2019-02-05T07:08:09.132Z,30.63
2019-02-05T07:10:37.326Z,31.40
2019-02-05T07:13:05.656Z,28.57
2019-02-05T07:15:33.861Z,29.50
2019-02-05T07:18:02.318Z,30.33
2019-02-05T07:20:30.454Z,31.77
2019-02-05T07:22:58.651Z,29.60
2019-02-05T07:25:26.985Z,29.77
2019-02-05T07:27:55.466Z,32.20
2019-02-05T07:30:24.686Z,37.27
2019-02-05T07:32:53.078Z,33.33
2019-02-05T07:35:21.539Z,40.50
2019-02-05T07:37:49.902Z,33.83
2019-02-05T07:40:19.614Z,34.50
2019-02-05T07:42:47.856Z,34.93
2019-02-05T07:45:17.242Z,35.23
2019-02-05T07:47:45.437Z,35.20
2019-02-05T07:50:15.666Z,38.70
2019-02-05T07:52:43.937Z,37.47
2019-02-05T07:55:12.345Z,31.87
2019-02-05T07:57:40.771Z,39.53
2019-02-05T08:00:10.466Z,34.17
2019-02-05T08:02:39.006Z,39.63
2019-02-05T08:05:08.789Z,35.27
2019-02-05T08:07:36.926Z,30.43
2019-02-05T08:10:06.838Z,30.63
2019-02-05T08:12:35.100Z,30.53
2019-02-05T08:15:03.994Z,26.87
2019-02-05T08:17:32.529Z,38.23
2019-02-05T08:20:00.778Z,30.23
2019-02-05T08:22:32.188Z,31.60
2019-02-05T08:24:59.119Z,32.27
2019-02-05T08:27:27.502Z,28.73
2019-02-05T08:29:55.639Z,29.73
2019-02-05T08:32:24.231Z,28.27
2019-02-05T08:34:52.376Z,38.70
2019-02-05T08:37:20.522Z,30.37
2019-02-05T08:39:48.716Z,33.87
2019-02-05T08:42:16.926Z,30.07
2019-02-05T08:44:45.078Z,34.23
2019-02-05T08:47:13.234Z,29.10
2019-02-05T08:49:41.369Z,28.63
2019-02-05T08:52:09.610Z,33.57
2019-02-05T08:54:38.226Z,37.43
2019-02-05T08:57:06.477Z,29.30
2019-02-05T08:59:34.678Z,36.27
2019-02-05T09:02:03.023Z,27.60
2019-02-05T09:04:31.261Z,27.87
2019-02-05T09:06:59.468Z,29.03
2019-02-05T09:09:27.830Z,31.33
2019-02-05T09:11:56.033Z,28.43
2019-02-05T09:14:24.417Z,29.23
2019-02-05T09:16:52.806Z,32.90
2019-02-05T09:19:21.028Z,27.90
2019-02-05T09:21:49.230Z,27.27
2019-02-05T09:24:17.423Z,29.83
2019-02-05T09:26:45.604Z,33.47
2019-02-05T09:29:13.880Z,30.70
2019-02-05T09:31:42.496Z,28.13
2019-02-05T09:34:10.740Z,29.93
2019-02-05T09:36:38.946Z,30.20
2019-02-05T09:39:07.309Z,31.10
2019-02-05T09:41:35.450Z,31.00
2019-02-05T09:44:03.704Z,28.50
2019-02-05T09:46:32.040Z,31.67
2019-02-05T09:49:00.242Z,29.93
2019-02-05T09:51:28.458Z,28.80
2019-02-05T09:53:56.742Z,34.83
2019-02-05T09:56:24.997Z,36.97
2019-02-05T09:58:53.222Z,33.20
2019-02-05T10:01:21.884Z,32.80
2019-02-05T10:03:50.090Z,33.00
2019-02-05T10:06:18.237Z,32.27
2019-02-05T10:08:46.931Z,33.53
2019-02-05T10:11:15.168Z,36.47
2019-02-05T10:13:43.362Z,30.40
2019-02-05T10:16:11.625Z,34.53
2019-02-05T10:18:39.845Z,32.70
2019-02-05T10:21:08.076Z,34.70
2019-02-05T10:23:36.609Z,38.70
2019-02-05T10:26:05.211Z,32.23
2019-02-05T10:28:33.573Z,29.93
2019-02-05T10:31:02.085Z,32.03
2019-02-05T10:33:30.289Z,40.07
2019-02-05T10:36:01.315Z,35.13
2019-02-05T10:38:28.664Z,34.67
2019-02-05T10:40:56.950Z,35.87
2019-02-05T10:43:25.479Z,33.93
2019-02-05T10:45:53.853Z,41.77
2019-02-05T10:48:21.994Z,36.23
2019-02-05T10:50:50.176Z,39.83
2019-02-05T10:53:18.446Z,36.60
2019-02-05T10:55:46.695Z,32.30
2019-02-05T10:58:14.823Z,34.63
2019-02-05T11:00:43.398Z,31.80
2019-02-05T11:03:11.696Z,34.70
2019-02-05T11:05:39.909Z,30.47
2019-02-05T11:08:08.440Z,34.63
2019-02-05T11:10:36.695Z,33.30
2019-02-05T11:13:05.315Z,39.00
2019-02-05T11:15:33.654Z,33.50
2019-02-05T11:18:02.443Z,30.83
2019-02-05T11:20:31.482Z,34.33
2019-02-05T11:25:40.212Z,34.10
2019-02-05T11:28:08.402Z,37.20
2019-02-05T11:30:38.190Z,37.97
2019-02-05T11:33:06.381Z,34.27
2019-02-05T11:35:34.608Z,37.93
2019-02-05T11:38:02.891Z,35.40
2019-02-05T11:40:32.790Z,34.17
2019-02-05T11:43:00.971Z,44.00
2019-02-05T11:45:29.179Z,40.67
2019-02-05T11:47:57.923Z,42.30
2019-02-05T11:50:26.193Z,35.57
2019-02-05T11:52:54.722Z,38.53
2019-02-05T11:55:27.440Z,41.27
2019-02-05T11:57:55.645Z,46.20
2019-02-05T12:00:32.936Z,43.43
2019-02-05T12:03:00.885Z,45.00
2019-02-05T12:05:29.081Z,40.43
2019-02-05T12:07:57.644Z,42.40
2019-02-05T12:10:25.778Z,43.20
2019-02-05T12:12:53.941Z,44.47
2019-02-05T12:15:22.157Z,40.47
2019-02-05T12:17:50.338Z,39.87
2019-02-05T12:20:18.822Z,36.97
2019-02-05T12:25:41.662Z,39.10
2019-02-05T12:28:09.870Z,40.87
2019-02-05T12:30:45.178Z,41.20
2019-02-05T12:33:28.366Z,34.87
2019-02-05T12:35:56.511Z,34.10
2019-02-05T12:38:24.685Z,37.27
2019-02-05T12:41:12.480Z,37.17
2019-02-05T12:43:40.619Z,47.97
2019-02-05T12:46:09.134Z,42.57
2019-02-05T12:48:37.306Z,45.67
2019-02-05T12:51:05.559Z,43.90
2019-02-05T12:53:53.253Z,41.43
2019-02-05T13:02:35.355Z,45.80
2019-02-05T13:05:22.878Z,45.57
2019-02-05T13:07:51.464Z,46.77
2019-02-05T13:10:27.326Z,48.37
2019-02-05T13:12:55.488Z,43.13
2019-02-05T13:15:23.686Z,38.30
2019-02-05T13:18:11.191Z,41.13
2019-02-05T13:20:39.710Z,38.67
2019-02-05T13:23:27.335Z,42.63
2019-02-05T13:25:55.576Z,48.53
2019-02-05T13:28:23.828Z,41.10
2019-02-05T13:30:52.395Z,40.77
2019-02-05T13:33:20.542Z,40.90
2019-02-05T13:36:08.742Z,42.93
2019-02-05T13:38:36.926Z,37.37
2019-02-05T13:41:05.100Z,47.87
2019-02-05T13:43:33.687Z,47.03
2019-02-05T13:46:01.838Z,43.57
2019-02-05T13:48:49.397Z,42.00
2019-02-05T13:51:17.649Z,38.47
2019-02-05T13:53:45.888Z,43.93
2019-02-05T13:56:14.230Z,41.67
2019-02-05T13:58:42.374Z,41.03
2019-02-05T14:01:19.505Z,44.70
2019-02-05T14:03:40.770Z,43.50
2019-02-05T14:06:08.906Z,44.10
2019-02-05T14:08:37.045Z,39.40
2019-02-05T14:11:05.428Z,42.67
2019-02-05T14:13:33.586Z,42.27
2019-02-05T14:16:01.740Z,42.70
2019-02-05T14:18:30.048Z,43.33
2019-02-05T14:20:58.297Z,44.47
2019-02-05T14:23:26.477Z,39.80
2019-02-05T14:25:54.741Z,45.27
2019-02-05T14:28:22.934Z,44.63
2019-02-05T14:30:51.909Z,45.50
2019-02-05T14:33:20.986Z,40.13
2019-02-05T14:35:49.133Z,47.50
2019-02-05T14:38:17.346Z,39.00
2019-02-05T14:40:45.553Z,46.53
2019-02-05T14:43:13.733Z,45.27
2019-02-05T14:45:42.256Z,45.93
2019-02-05T14:48:10.674Z,41.83
2019-02-05T14:50:43.270Z,43.30
2019-02-05T14:53:11.672Z,41.43
2019-02-05T14:55:39.822Z,40.77
2019-02-05T14:58:08.971Z,42.13
2019-02-05T15:00:37.670Z,44.93
2019-02-05T15:03:25.214Z,46.93
2019-02-05T15:05:53.433Z,45.87
2019-02-05T15:08:21.612Z,43.97
2019-02-05T15:10:50.028Z,48.80
2019-02-05T15:13:18.354Z,42.90
2019-02-05T15:15:46.633Z,55.63
2019-02-05T15:18:34.256Z,45.63
2019-02-05T15:21:02.453Z,41.93
2019-02-05T15:23:30.630Z,37.63
2019-02-05T15:25:58.955Z,34.83
2019-02-05T15:28:27.203Z,45.30
2019-02-05T15:30:55.375Z,42.73
2019-02-05T15:33:42.859Z,43.43
2019-02-05T15:36:31.599Z,49.53
2019-02-05T15:39:00.477Z,44.07
2019-02-05T15:41:28.706Z,44.73
2019-02-05T15:43:56.852Z,45.90
2019-02-05T15:46:44.519Z,43.23
2019-02-05T15:49:12.814Z,43.57
2019-02-05T15:51:41.033Z,39.77
2019-02-05T15:54:09.356Z,43.63
2019-02-05T15:56:37.529Z,47.30
2019-02-05T15:59:25.454Z,40.97
2019-02-05T16:05:08.116Z,45.90
2019-02-05T16:07:36.292Z,49.57
2019-02-05T16:10:06.034Z,39.93
2019-02-05T16:12:34.391Z,45.47
2019-02-05T16:15:02.535Z,47.07
2019-02-05T16:17:31.059Z,44.00
2019-02-05T16:20:18.659Z,41.17
2019-02-05T16:22:46.912Z,38.93
2019-02-05T16:25:34.598Z,41.63
2019-02-05T16:28:02.972Z,42.53
2019-02-05T16:30:31.510Z,42.40
2019-02-05T16:33:19.060Z,38.43
2019-02-05T16:35:47.229Z,42.30
2019-02-05T16:38:15.768Z,41.83
2019-02-05T16:40:44.114Z,41.40
2019-02-05T16:43:12.251Z,39.17
2019-02-05T16:45:40.435Z,38.07
2019-02-05T16:48:08.687Z,47.97
2019-02-05T16:50:37.889Z,45.93
2019-02-05T16:53:06.961Z,39.57
2019-02-05T16:55:54.710Z,40.73
2019-02-05T16:58:23.244Z,41.03
2019-02-05T17:00:51.434Z,47.17
2019-02-05T17:03:19.818Z,45.00
2019-02-05T17:05:47.993Z,44.37
2019-02-05T17:08:47.742Z,45.03
2019-02-05T17:11:05.506Z,39.33
2019-02-05T17:13:33.662Z,39.63
2019-02-05T17:16:01.823Z,43.40
2019-02-05T17:18:30.236Z,40.50
2019-02-05T17:20:58.447Z,39.57
2019-02-05T17:23:26.662Z,42.00
2019-02-05T17:25:54.797Z,38.03
2019-02-05T17:28:22.951Z,34.90
2019-02-05T17:30:51.270Z,34.50
2019-02-05T17:33:19.412Z,40.40
2019-02-05T17:35:47.725Z,41.97
2019-02-05T17:38:16.068Z,48.90
2019-02-05T17:40:44.259Z,42.90
2019-02-05T17:43:12.411Z,39.93
2019-02-05T17:46:00.037Z,39.37
2019-02-05T17:48:28.266Z,38.53
2019-02-05T17:50:56.450Z,38.50
2019-02-05T17:53:44.079Z,41.20
2019-02-05T17:56:12.632Z,40.40
2019-02-05T17:58:40.785Z,44.00
2019-02-05T18:01:11.179Z,41.97
2019-02-05T18:03:58.667Z,40.77
2019-02-05T18:06:27.210Z,42.40
2019-02-05T18:08:55.353Z,44.10
2019-02-05T18:11:23.782Z,39.83
2019-02-05T18:13:52.080Z,40.27
2019-02-05T18:16:20.270Z,40.03
2019-02-05T18:18:48.453Z,43.10
2019-02-05T18:21:16.741Z,37.90
2019-02-05T18:23:44.883Z,36.77
2019-02-05T18:26:32.599Z,35.60
2019-02-05T18:29:00.734Z,35.70
2019-02-05T18:31:28.928Z,38.27
2019-02-05T18:33:57.622Z,50.17
2019-02-05T18:36:25.836Z,43.57
2019-02-05T18:38:54.255Z,43.17
2019-02-05T18:41:41.798Z,47.03
2019-02-05T18:44:10.077Z,44.20
2019-02-05T18:46:38.288Z,43.00
2019-02-05T18:49:07.381Z,43.47
2019-02-05T18:51:36.671Z,46.97
2019-02-05T18:54:04.893Z,43.17
2019-02-05T18:56:33.204Z,39.70
2019-02-05T18:59:01.393Z,40.37
2019-02-05T19:01:49.104Z,43.37
2019-02-05T19:04:17.419Z,35.50
2019-02-05T19:06:45.566Z,39.77
2019-02-05T19:09:13.918Z,34.70
2019-02-05T19:11:42.107Z,35.77
2019-02-05T19:14:10.318Z,34.00
2019-02-05T19:16:38.552Z,34.83
2019-02-05T19:19:14.542Z,39.17
2019-02-05T19:21:36.638Z,40.33
2019-02-05T19:24:06.484Z,42.03
2019-02-05T19:26:53.959Z,39.43
2019-02-05T19:29:22.191Z,39.83
2019-02-05T19:31:50.701Z,44.63
2019-02-05T19:34:18.858Z,38.03
2019-02-05T19:36:47.344Z,38.40
2019-02-05T19:39:15.565Z,40.13
2019-02-05T19:41:43.755Z,40.87
2019-02-05T19:44:11.949Z,41.70
2019-02-05T19:46:44.242Z,39.77
2019-02-05T19:49:21.544Z,41.57
2019-02-05T19:51:44.406Z,38.37
2019-02-05T19:54:12.873Z,40.20
2019-02-05T19:56:41.201Z,41.07
2019-02-05T19:59:29.138Z,40.73
2019-02-05T20:01:57.545Z,42.60
2019-02-05T20:04:25.796Z,44.20
2019-02-05T20:06:54.159Z,40.83
2019-02-05T20:09:41.634Z,42.13
2019-02-05T20:12:09.913Z,41.50
2019-02-05T20:14:38.050Z,38.13
2019-02-05T20:17:06.577Z,44.50
2019-02-05T20:19:34.840Z,43.63
2019-02-05T20:22:03.027Z,43.13
2019-02-05T20:24:31.154Z,51.80
2019-02-05T20:26:59.446Z,48.77
2019-02-05T20:29:27.698Z,49.80
2019-02-05T20:31:55.852Z,52.73
2019-02-05T20:34:24.546Z,52.90
2019-02-05T20:36:52.764Z,46.03
2019-02-05T20:39:20.967Z,43.87
2019-02-05T20:41:52.422Z,48.00
2019-02-05T20:44:38.500Z,53.63
2019-02-05T20:47:07.458Z,53.30
2019-02-05T20:49:35.615Z,46.67
2019-02-05T20:52:03.901Z,48.93
2019-02-05T20:54:32.182Z,54.07
2019-02-05T20:57:00.310Z,51.53
2019-02-05T20:59:30.418Z,51.67
2019-02-05T21:01:58.373Z,51.97
2019-02-05T21:04:26.537Z,51.03
2019-02-05T21:06:54.759Z,49.97
2019-02-05T21:09:23.117Z,53.87
2019-02-05T21:11:51.268Z,53.17
2019-02-05T21:14:19.425Z,53.97
2019-02-05T21:16:47.885Z,51.83
2019-02-05T21:19:16.014Z,48.63
2019-02-05T21:21:44.154Z,52.20
2019-02-05T21:24:12.449Z,50.37
2019-02-05T21:26:40.603Z,59.97
2019-02-05T21:29:08.775Z,58.93
2019-02-05T21:31:37.080Z,52.80
2019-02-05T21:34:15.291Z,53.37
2019-02-05T21:36:35.124Z,51.90
2019-02-05T21:39:05.186Z,52.97
2019-02-05T21:41:33.419Z,51.27
2019-02-05T21:44:21.011Z,52.93
2019-02-05T21:46:49.145Z,52.10
2019-02-05T21:49:17.400Z,51.57
2019-02-05T21:51:45.933Z,48.90
2019-02-05T21:54:14.081Z,49.40
2019-02-05T21:56:42.348Z,53.37
2019-02-05T21:59:29.925Z,49.43
2019-02-05T22:01:58.086Z,47.77
2019-02-05T22:04:28.137Z,53.43
2019-02-05T22:06:56.269Z,50.17
2019-02-05T22:09:24.531Z,50.50
2019-02-05T22:11:52.706Z,65.43
2019-02-05T22:14:21.072Z,56.90
2019-02-05T22:16:49.210Z,57.07
2019-02-05T22:19:19.080Z,57.33
2019-02-05T22:21:47.921Z,56.83
2019-02-05T22:24:16.181Z,58.87
2019-02-05T22:26:44.390Z,61.00
2019-02-05T22:29:12.634Z,62.47
2019-02-05T22:31:40.876Z,57.77
2019-02-05T22:34:09.337Z,59.97
2019-02-05T22:36:37.913Z,63.87
2019-02-05T22:39:06.830Z,81.87
2019-02-05T22:41:34.949Z,66.83
2019-02-05T22:44:03.113Z,60.90
2019-02-05T22:46:31.262Z,61.77
2019-02-05T22:48:59.540Z,55.80
2019-02-05T22:51:27.745Z,62.57
2019-02-05T22:53:55.956Z,62.43
2019-02-05T22:56:24.366Z,72.47
2019-02-05T22:58:52.807Z,63.87
2019-02-05T23:01:22.535Z,65.57
2019-02-05T23:03:52.533Z,76.67
2019-02-05T23:06:22.380Z,59.70
2019-02-05T23:08:51.063Z,69.30
2019-02-05T23:11:37.789Z,65.13
2019-02-05T23:14:05.917Z,67.97
2019-02-05T23:16:34.058Z,75.40
2019-02-05T23:19:02.529Z,61.87
2019-02-05T23:21:30.680Z,72.63
2019-02-05T23:23:59.186Z,65.70
2019-02-05T23:26:27.415Z,78.07
2019-02-05T23:28:55.561Z,69.77
2019-02-05T23:31:23.693Z,76.57
2019-02-05T23:33:51.924Z,73.87
2019-02-05T23:36:20.106Z,64.13
2019-02-05T23:38:48.273Z,63.13
2019-02-05T23:41:16.669Z,68.93
2019-02-05T23:43:44.881Z,65.70
2019-02-05T23:46:13.020Z,74.73
2019-02-05T23:48:41.190Z,63.80
2019-02-05T23:51:09.539Z,58.30
2019-02-05T23:53:37.788Z,65.40
2019-02-05T23:56:06.157Z,66.73
2019-02-05T23:58:34.360Z,64.10
